Time;durP1;ratioP1;P1;durP2;ratioP2;P2;SDS_P1;SDS_P2;PMS_P1;PMS_P2;Temp;Humidity;BMP_temperature;BMP_pressure;BME280_temperature;BME280_humidity;BME280_pressure;Samples;Min_cycle;Max_cycle;Signal;HPM_P1;HPM_P2
2022/01/13 00:02:02;;;;;;;56.60;7.65;;;;;;;7.30;100.00;102069.09;4927790;29;20098;-80
2022/01/13 00:04:28;;;;;;;60.08;6.82;;;;;;;7.21;100.00;102042.38;4926291;29;20044;-82
2022/01/13 00:06:54;;;;;;;49.72;6.63;;;;;;;7.28;100.00;102052.38;4926822;29;20032;-82
2022/01/13 00:09:19;;;;;;;51.10;7.00;;;;;;;7.30;100.00;102047.69;4912011;29;20051;-81
2022/01/13 00:11:47;;;;;;;61.97;7.65;;;;;;;7.25;100.00;102033.03;4925768;29;20036;-80
2022/01/13 00:17:06;;;;;;;61.05;7.70;;;;;;;7.22;100.00;102036.88;4911115;29;20032;-81
2022/01/13 00:25:00;;;;;;;61.08;8.82;;;;;;;7.03;100.00;102026.25;4919096;29;20032;-82
2022/01/13 00:27:28;;;;;;;48.90;7.30;;;;;;;7.09;100.00;102016.78;4933288;29;20024;-82
2022/01/13 00:29:58;;;;;;;61.58;8.55;;;;;;;7.20;100.00;102027.31;4894445;29;20028;-81
2022/01/13 00:32:27;;;;;;;42.25;6.22;;;;;;;7.15;100.00;102014.38;4925924;29;20090;-81
2022/01/13 00:34:53;;;;;;;39.42;5.57;;;;;;;7.19;100.00;102020.28;4910608;29;20128;-81
2022/01/13 00:37:18;;;;;;;58.38;7.95;;;;;;;7.16;100.00;102007.19;4912365;29;20064;-81
2022/01/13 00:39:44;;;;;;;59.40;8.02;;;;;;;7.21;100.00;102021.78;4910736;29;20100;-81
2022/01/13 00:42:09;;;;;;;59.17;7.82;;;;;;;7.23;100.00;102008.28;4927335;29;20056;-80
2022/01/13 00:44:37;;;;;;;52.85;7.10;;;;;;;7.19;100.00;101997.03;4927315;29;20403;-82
2022/01/13 00:47:05;;;;;;;57.22;7.40;;;;;;;7.26;100.00;102010.66;4911485;29;20028;-81
2022/01/13 00:49:31;;;;;;;43.20;7.28;;;;;;;7.22;100.00;101994.06;4927544;29;20044;-80
2022/01/13 00:51:56;;;;;;;48.53;6.90;;;;;;;7.20;100.00;102009.41;4928376;29;20043;-81
2022/01/13 00:54:23;;;;;;;55.42;7.47;;;;;;;7.21;100.00;102002.22;4927764;29;20039;-82
2022/01/13 00:56:48;;;;;;;51.22;6.88;;;;;;;7.20;100.00;101995.19;4917204;29;20097;-81
2022/01/13 00:59:15;;;;;;;62.55;9.18;;;;;;;7.27;100.00;102012.34;4919505;29;20053;-81
2022/01/13 01:01:49;;;;;;;51.33;7.80;;;;;;;7.19;100.00;101985.47;4928246;29;20066;-83
2022/01/13 01:04:16;;;;;;;54.92;7.30;;;;;;;7.17;100.00;102003.50;4928154;29;20024;-82
2022/01/13 01:06:42;;;;;;;58.42;8.20;;;;;;;7.23;100.00;102001.06;4912185;29;20028;-81
2022/01/13 01:09:14;;;;;;;57.88;7.88;;;;;;;7.25;100.00;102006.28;4911960;29;20059;-82
2022/01/13 01:11:40;;;;;;;51.33;7.47;;;;;;;7.21;100.00;102004.88;4930153;29;20067;-81
2022/01/13 01:14:07;;;;;;;48.50;7.43;;;;;;;7.28;100.00;102014.00;4916003;29;20024;-84
2022/01/13 01:16:36;;;;;;;38.03;5.80;;;;;;;7.20;100.00;102016.59;4936544;29;20044;-83
2022/01/13 01:19:06;;;;;;;46.63;6.38;;;;;;;7.27;100.00;102023.88;4938275;29;20047;-84
2022/01/13 01:27:04;;;;;;;43.25;5.97;;;;;;;7.25;100.00;102011.63;4911291;29;20104;-82
2022/01/13 01:31:58;;;;;;;53.83;6.93;;;;;;;7.38;100.00;102038.06;4895449;29;20043;-83
2022/01/13 01:36:54;;;;;;;53.95;6.78;;;;;;;7.35;100.00;102051.75;4927298;29;20340;-81
2022/01/13 01:39:19;;;;;;;61.90;8.35;;;;;;;7.33;100.00;102046.56;4937420;29;20032;-81
2022/01/13 01:41:48;;;;;;;46.15;6.53;;;;;;;7.40;100.00;102044.97;4929174;29;20032;-81
2022/01/13 01:44:18;;;;;;;56.72;7.60;;;;;;;7.43;100.00;102050.03;4936362;29;20394;-81
2022/01/13 01:46:46;;;;;;;54.45;7.70;;;;;;;7.36;100.00;102046.25;4926587;29;20072;-81
2022/01/13 01:49:17;;;;;;;47.85;7.18;;;;;;;7.38;100.00;102064.84;4926565;29;20052;-83
2022/01/13 01:51:49;;;;;;;60.65;7.35;;;;;;;7.39;100.00;102056.69;4905167;29;20039;-82
2022/01/13 01:54:14;;;;;;;62.08;7.78;;;;;;;7.36;100.00;102038.22;4928224;29;20116;-82
2022/01/13 01:56:41;;;;;;;54.10;8.00;;;;;;;7.35;100.00;102025.84;4928511;29;20385;-81
2022/01/13 01:59:11;;;;;;;49.40;6.72;;;;;;;7.37;100.00;102009.63;4929112;29;20447;-81
2022/01/13 02:01:38;;;;;;;57.33;6.97;;;;;;;7.33;100.00;102019.78;4915607;29;20050;-82
2022/01/13 02:04:03;;;;;;;43.17;7.18;;;;;;;7.28;100.00;102011.34;4913220;29;20047;-82
2022/01/13 02:06:29;;;;;;;41.55;5.88;;;;;;;7.30;100.00;102020.06;4927607;29;20056;-81
2022/01/13 02:08:56;;;;;;;50.42;6.65;;;;;;;7.36;100.00;102024.84;4917314;29;20049;-84
2022/01/13 02:11:23;;;;;;;45.45;7.95;;;;;;;7.28;100.00;102016.69;4924929;29;20032;-83
2022/01/13 02:13:54;;;;;;;43.33;6.05;;;;;;;7.33;100.00;102019.78;4930281;29;20029;-83
2022/01/13 02:19:00;;;;;;;52.42;7.80;;;;;;;7.36;100.00;102011.44;4932943;29;20032;-83
2022/01/13 02:21:27;;;;;;;63.33;9.07;;;;;;;7.38;100.00;102012.13;4931231;29;20487;-82
2022/01/13 02:23:54;;;;;;;58.35;8.15;;;;;;;7.38;100.00;102012.13;4912230;29;20049;-83
2022/01/13 02:26:21;;;;;;;58.97;8.13;;;;;;;7.31;100.00;102016.41;4931599;29;20502;-83
2022/01/13 02:28:51;;;;;;;51.33;6.90;;;;;;;7.33;100.00;102010.91;4930214;29;20127;-82
2022/01/13 02:31:17;;;;;;;49.13;7.30;;;;;;;7.32;100.00;101999.34;4914768;29;20032;-81
2022/01/13 02:33:43;;;;;;;50.30;7.28;;;;;;;7.30;100.00;101994.13;4929825;29;20066;-82
2022/01/13 02:36:10;;;;;;;52.28;7.65;;;;;;;7.29;100.00;101986.25;4932094;29;20024;-82
2022/01/13 02:38:36;;;;;;;50.90;6.65;;;;;;;7.28;100.00;101973.84;4905243;29;20016;-82
2022/01/13 02:41:03;;;;;;;68.25;9.40;;;;;;;7.19;100.00;101939.97;4926342;28;20039;-83
2022/01/13 02:43:33;;;;;;;34.85;6.20;;;;;;;7.27;100.00;101956.09;4908577;29;20025;-82
2022/01/13 02:46:18;;;;;;;49.47;7.22;;;;;;;7.26;100.00;101949.09;4917217;29;20024;-79
2022/01/13 02:48:45;;;;;;;48.65;6.95;;;;;;;7.15;100.00;101949.25;4914516;29;20031;-81
2022/01/13 02:51:11;;;;;;;43.15;6.75;;;;;;;7.18;100.00;101940.94;4929402;29;20058;-83
2022/01/13 02:53:36;;;;;;;51.42;8.35;;;;;;;7.21;100.00;101984.31;4926431;29;20036;-82
2022/01/13 02:56:04;;;;;;;49.38;7.90;;;;;;;7.16;100.00;101975.06;4925756;29;20032;-83
2022/01/13 02:58:31;;;;;;;50.53;6.85;;;;;;;7.13;100.00;101970.00;4912246;29;20037;-82
2022/01/13 03:00:57;;;;;;;42.80;6.07;;;;;;;7.11;100.00;101977.31;4893282;29;20044;-83
2022/01/13 03:03:22;;;;;;;49.90;8.50;;;;;;;7.07;100.00;101976.78;4923195;29;20032;-81
2022/01/13 03:05:48;;;;;;;43.92;6.40;;;;;;;7.06;100.00;101967.06;4927915;29;20442;-82
2022/01/13 03:08:14;;;;;;;49.00;7.75;;;;;;;7.07;100.00;101971.41;4928792;29;20060;-82
2022/01/13 03:10:39;;;;;;;47.65;6.53;;;;;;;7.06;100.00;101942.97;4907130;29;20039;-82
2022/01/13 03:13:06;;;;;;;38.33;6.15;;;;;;;7.04;100.00;101944.94;4924421;29;20076;-81
2022/01/13 03:15:32;;;;;;;55.90;8.85;;;;;;;7.01;100.00;101938.06;4917089;29;20032;-84
2022/01/13 03:17:57;;;;;;;52.92;7.70;;;;;;;7.12;100.00;101955.78;4905697;29;20034;-83
2022/01/13 03:20:23;;;;;;;61.80;8.20;;;;;;;7.20;100.00;101963.06;4895303;29;20443;-83
2022/01/13 03:22:48;;;;;;;47.92;7.88;;;;;;;7.18;100.00;101954.31;4918858;29;20058;-82
2022/01/13 03:25:15;;;;;;;54.88;8.77;;;;;;;7.22;100.00;101977.16;4919914;29;20191;-83
2022/01/13 03:27:41;;;;;;;54.53;7.75;;;;;;;7.12;100.00;101952.22;4903528;29;20118;-81
2022/01/13 03:30:09;;;;;;;45.88;6.60;;;;;;;7.17;100.00;101955.31;4911618;29;20028;-81
2022/01/13 03:32:35;;;;;;;67.22;8.55;;;;;;;7.15;100.00;101957.28;4925111;29;20047;-82
2022/01/13 03:35:02;;;;;;;45.00;7.22;;;;;;;7.09;100.00;101944.53;4925191;29;20056;-81
2022/01/13 03:37:28;;;;;;;47.90;6.40;;;;;;;7.18;100.00;101957.00;4925022;29;20028;-81
2022/01/13 03:39:55;;;;;;;55.13;8.43;;;;;;;7.12;100.00;101944.19;4926080;29;20052;-82
2022/01/13 03:42:21;;;;;;;51.72;7.32;;;;;;;7.10;100.00;101948.88;4909102;29;20070;-82
2022/01/13 03:44:47;;;;;;;54.22;8.02;;;;;;;7.15;100.00;101935.88;4927861;29;20032;-81
2022/01/13 03:47:13;;;;;;;47.83;7.25;;;;;;;7.17;100.00;101928.56;4928795;29;20060;-81
2022/01/13 03:49:39;;;;;;;59.67;8.20;;;;;;;7.21;100.00;101938.81;4912839;29;20064;-82
2022/01/13 03:52:23;;;;;;;48.78;6.90;;;;;;;7.17;100.00;101934.75;4912784;29;20029;-83
2022/01/13 03:55:30;;;;;;;40.92;5.63;;;;;;;7.16;100.00;101929.56;4903383;29;20020;-81
2022/01/13 03:58:15;;;;;;;55.80;8.55;;;;;;;7.17;100.00;101917.84;4874426;29;20128;-82
2022/01/13 04:01:17;;;;;;;46.10;7.50;;;;;;;7.18;100.00;101948.97;4897579;29;20039;-81
2022/01/13 04:03:42;;;;;;;46.03;8.15;;;;;;;7.17;100.00;101948.13;4911443;29;20053;-82
2022/01/13 04:06:14;;;;;;;60.33;7.93;;;;;;;7.18;100.00;101931.06;4910264;29;20029;-82
2022/01/13 04:08:40;;;;;;;42.72;6.95;;;;;;;7.14;100.00;101915.47;4927491;29;20028;-84
2022/01/13 04:11:05;;;;;;;42.85;6.30;;;;;;;7.16;100.00;101942.94;4912646;29;20043;-82
2022/01/13 04:16:13;;;;;;;30.00;5.18;;;;;;;7.06;100.00;101934.97;4911972;29;20033;-83
2022/01/13 04:18:39;;;;;;;40.55;6.60;;;;;;;7.13;100.00;101949.44;4912236;29;20031;-81
2022/01/13 04:21:04;;;;;;;48.75;6.35;;;;;;;7.14;100.00;101955.63;4916265;29;20028;-81
2022/01/13 04:23:31;;;;;;;44.13;7.30;;;;;;;7.14;100.00;101953.78;4893663;29;20057;-82
2022/01/13 04:25:57;;;;;;;38.38;5.90;;;;;;;7.05;100.00;101931.44;4895667;29;20063;-82
2022/01/13 04:28:27;;;;;;;39.80;7.53;;;;;;;7.15;100.00;101938.56;4910783;29;20029;-82
2022/01/13 04:31:00;;;;;;;36.78;4.93;;;;;;;7.13;100.00;101941.41;4914771;29;20124;-83
2022/01/13 04:33:33;;;;;;;49.88;8.32;;;;;;;7.15;100.00;101946.59;4888454;29;20028;-81
2022/01/13 04:36:00;;;;;;;45.50;5.57;;;;;;;6.97;100.00;101912.59;4897437;29;20037;-82
2022/01/13 04:38:25;;;;;;;45.47;6.90;;;;;;;7.07;100.00;101926.75;4900107;29;20033;-83
2022/01/13 04:41:00;;;;;;;45.30;6.75;;;;;;;7.15;100.00;101935.88;4935369;29;20028;-84
2022/01/13 04:43:28;;;;;;;43.78;6.38;;;;;;;7.15;100.00;101931.41;4929276;29;20016;-85
2022/01/13 04:45:54;;;;;;;52.03;7.65;;;;;;;7.20;100.00;101934.44;4934636;29;20043;-84
2022/01/13 04:48:19;;;;;;;52.88;7.80;;;;;;;7.14;100.00;101916.31;4919633;29;20064;-85
2022/01/13 04:50:45;;;;;;;53.03;7.22;;;;;;;7.22;100.00;101904.88;4884602;29;20064;-83
2022/01/13 04:53:12;;;;;;;40.22;6.32;;;;;;;7.21;100.00;101927.25;4899575;29;20032;-84
2022/01/13 04:55:38;;;;;;;32.75;7.20;;;;;;;7.20;100.00;101913.03;4927969;29;20029;-81
2022/01/13 04:58:05;;;;;;;44.60;6.15;;;;;;;7.19;100.00;101922.06;4892631;29;20100;-82
2022/01/13 05:00:32;;;;;;;58.85;7.93;;;;;;;7.17;100.00;101920.53;4909179;29;20036;-82
2022/01/13 05:02:58;;;;;;;36.78;5.60;;;;;;;7.17;100.00;101907.13;4911461;29;20039;-81
2022/01/13 05:05:24;;;;;;;35.80;7.13;;;;;;;7.10;100.00;101898.03;4925079;29;20041;-81
2022/01/13 05:07:50;;;;;;;50.70;7.20;;;;;;;7.27;100.00;101915.94;4925173;29;20036;-82
2022/01/13 05:10:16;;;;;;;35.80;5.60;;;;;;;7.26;100.00;101916.97;4909118;29;20049;-82
2022/01/13 05:12:44;;;;;;;40.15;6.80;;;;;;;7.25;100.00;101896.50;4911865;29;20056;-80
2022/01/13 05:15:16;;;;;;;52.83;7.13;;;;;;;7.09;100.00;101857.03;4909514;29;20079;-82
2022/01/13 05:20:16;;;;;;;45.13;6.55;;;;;;;7.20;100.00;101901.50;4909972;29;20355;-83
2022/01/13 05:22:42;;;;;;;47.35;6.28;;;;;;;7.17;100.00;101899.09;4911735;29;20025;-81
2022/01/13 05:25:08;;;;;;;40.50;6.10;;;;;;;7.19;100.00;101908.69;4909599;29;20048;-81
2022/01/13 05:27:34;;;;;;;47.60;6.93;;;;;;;7.21;100.00;101911.19;4908500;29;20036;-81
2022/01/13 05:30:02;;;;;;;46.85;7.35;;;;;;;7.21;100.00;101908.53;4909953;29;20043;-82
2022/01/13 05:32:27;;;;;;;48.90;6.97;;;;;;;7.15;100.00;101899.28;4893080;29;20064;-81
2022/01/13 05:34:53;;;;;;;45.45;6.85;;;;;;;7.13;100.00;101890.53;4910457;29;20036;-82
2022/01/13 05:37:18;;;;;;;37.42;6.45;;;;;;;7.18;100.00;101876.69;4908338;29;20111;-82
2022/01/13 05:39:44;;;;;;;46.63;6.90;;;;;;;7.20;100.00;101880.91;4908527;29;20040;-80
2022/01/13 05:42:11;;;;;;;42.90;5.60;;;;;;;7.23;100.00;101877.94;4909788;29;20028;-81
2022/01/13 05:44:39;;;;;;;33.03;5.38;;;;;;;7.22;100.00;101878.94;4909937;29;20028;-83
2022/01/13 05:47:10;;;;;;;30.58;4.40;;;;;;;7.25;100.00;101859.91;4930006;29;20032;-80
2022/01/13 05:49:38;;;;;;;38.25;5.90;;;;;;;7.21;100.00;101877.22;4915933;29;20080;-83
2022/01/13 05:52:04;;;;;;;38.70;6.68;;;;;;;7.20;100.00;101880.06;4916730;29;20153;-78
2022/01/13 05:54:30;;;;;;;34.60;5.72;;;;;;;7.24;100.00;101878.78;4929264;29;20470;-81
2022/01/13 05:56:55;;;;;;;46.42;7.85;;;;;;;7.23;100.00;101911.91;4929910;29;20036;-82
2022/01/13 05:59:22;;;;;;;35.80;6.60;;;;;;;7.26;100.00;101900.91;4926718;29;20056;-82
2022/01/13 06:01:48;;;;;;;37.63;5.28;;;;;;;7.27;100.00;101921.31;4915237;29;20036;-81
2022/01/13 06:04:13;;;;;;;44.13;6.90;;;;;;;7.29;100.00;101932.72;4913184;29;20055;-81
2022/01/13 06:06:39;;;;;;;43.08;6.55;;;;;;;7.22;100.00;101937.00;4914674;29;20039;-80
2022/01/13 06:09:04;;;;;;;47.15;7.30;;;;;;;7.26;100.00;101952.59;4900478;29;20083;-81
2022/01/13 06:11:37;;;;;;;46.80;6.60;;;;;;;7.25;100.00;101947.38;4910629;29;20025;-81
2022/01/13 06:14:03;;;;;;;38.85;5.68;;;;;;;7.21;100.00;101944.16;4895757;29;20071;-82
2022/01/13 06:16:29;;;;;;;49.97;6.30;;;;;;;7.17;100.00;101956.16;4928317;29;20040;-83
2022/01/13 06:18:54;;;;;;;43.58;6.30;;;;;;;7.22;100.00;101953.06;4916552;29;20095;-83
2022/01/13 06:21:20;;;;;;;38.83;7.07;;;;;;;7.16;100.00;101943.78;4930602;29;20035;-84
2022/01/13 06:23:45;;;;;;;43.17;6.68;;;;;;;7.23;100.00;101960.09;4949571;29;20031;-84
2022/01/13 06:26:10;;;;;;;47.30;7.05;;;;;;;7.24;100.00;101961.75;4957647;29;20035;-82
2022/01/13 06:28:36;;;;;;;50.92;6.88;;;;;;;7.22;100.00;101971.78;4917449;29;20028;-79
2022/01/13 06:31:01;;;;;;;53.33;7.78;;;;;;;7.19;100.00;101964.91;4925846;29;20032;-82
2022/01/13 06:33:28;;;;;;;43.42;6.72;;;;;;;7.20;100.00;101968.41;4925893;29;20051;-80
2022/01/13 06:35:53;;;;;;;48.33;7.03;;;;;;;7.16;100.00;101964.34;4943756;29;20027;-82
2022/01/13 06:38:19;;;;;;;56.28;7.78;;;;;;;7.22;100.00;101974.47;4917399;29;20043;-84
2022/01/13 06:40:45;;;;;;;57.28;7.72;;;;;;;7.16;100.00;101964.34;4932569;29;20107;-81
2022/01/13 06:43:10;;;;;;;60.03;8.00;;;;;;;7.22;100.00;101982.50;4946935;29;20039;-81
2022/01/13 06:45:35;;;;;;;43.75;5.93;;;;;;;7.22;100.00;101972.63;4911045;29;20095;-81
2022/01/13 06:48:01;;;;;;;48.25;6.78;;;;;;;7.21;100.00;101976.28;4927082;29;20043;-81
2022/01/13 06:50:28;;;;;;;46.50;6.80;;;;;;;7.17;100.00;101977.56;4909745;29;20066;-83
2022/01/13 06:52:56;;;;;;;46.58;6.90;;;;;;;7.17;100.00;101988.28;4915020;29;20035;-82
2022/01/13 06:55:21;;;;;;;43.10;6.82;;;;;;;7.17;100.00;101987.44;4927847;29;20036;-80
2022/01/13 06:57:47;;;;;;;55.78;7.82;;;;;;;7.15;100.00;101998.31;4928572;29;20034;-81
2022/01/13 07:00:14;;;;;;;43.80;7.20;;;;;;;7.21;100.00;101996.84;4912064;29;20020;-82
2022/01/13 07:02:40;;;;;;;41.97;6.50;;;;;;;7.23;100.00;102002.91;4932317;29;20129;-82
2022/01/13 07:05:06;;;;;;;49.30;7.45;;;;;;;7.16;100.00;102007.19;4929765;29;20016;-81
2022/01/13 07:07:34;;;;;;;42.90;6.93;;;;;;;7.22;100.00;101996.72;4923835;29;20046;-83
2022/01/13 07:10:00;;;;;;;53.55;8.00;;;;;;;7.19;100.00;101991.66;4931527;29;20028;-82
2022/01/13 07:12:25;;;;;;;46.28;7.00;;;;;;;7.20;100.00;102003.22;4915762;29;20040;-81
2022/01/13 07:14:50;;;;;;;42.40;7.00;;;;;;;7.21;100.00;101978.13;4914604;29;20054;-82
2022/01/13 07:17:16;;;;;;;41.47;7.10;;;;;;;7.19;100.00;101977.44;4916240;29;20032;-83
2022/01/13 07:19:41;;;;;;;43.17;6.88;;;;;;;7.19;100.00;101980.13;4919106;29;20111;-83
2022/01/13 07:22:09;;;;;;;51.03;7.53;;;;;;;7.16;100.00;101975.91;4935940;29;20097;-82
2022/01/13 07:24:34;;;;;;;55.97;7.88;;;;;;;7.12;100.00;101984.34;4907072;29;20119;-80
2022/01/13 07:27:00;;;;;;;54.90;8.57;;;;;;;7.14;100.00;101990.41;4928488;29;20027;-81
2022/01/13 07:29:25;;;;;;;40.78;6.38;;;;;;;7.14;100.00;101985.06;4929615;29;20091;-82
2022/01/13 07:31:51;;;;;;;52.63;7.05;;;;;;;7.08;100.00;101973.09;4926196;29;20036;-80
2022/01/13 07:34:16;;;;;;;57.22;8.75;;;;;;;7.08;100.00;101997.19;4933758;29;20031;-82
2022/01/13 07:36:42;;;;;;;44.83;6.70;;;;;;;7.00;100.00;101970.34;4935417;29;20031;-81
2022/01/13 07:39:08;;;;;;;32.90;5.80;;;;;;;7.03;100.00;101981.59;4921799;29;20036;-81
2022/01/13 07:41:34;;;;;;;50.65;7.72;;;;;;;7.01;100.00;101972.84;4921735;29;20498;-82
2022/01/13 07:44:00;;;;;;;40.08;6.45;;;;;;;7.12;100.00;101968.28;4931737;29;20064;-81
2022/01/13 07:46:26;;;;;;;40.92;6.13;;;;;;;7.06;100.00;101954.53;4927810;29;20051;-81
2022/01/13 07:48:51;;;;;;;42.75;7.07;;;;;;;7.13;100.00;101961.97;4912276;29;20036;-80
2022/01/13 07:51:17;;;;;;;33.38;5.00;;;;;;;7.13;100.00;101953.94;4929909;29;20094;-82
2022/01/13 07:53:43;;;;;;;33.30;5.80;;;;;;;7.14;100.00;101959.13;4930623;29;20032;-82
2022/01/13 07:56:09;;;;;;;40.03;5.75;;;;;;;7.17;100.00;101960.66;4929525;29;20028;-82
2022/01/13 07:58:35;;;;;;;41.28;7.75;;;;;;;7.09;100.00;101936.50;4929731;29;20043;-82
2022/01/13 08:01:02;;;;;;;42.40;6.90;;;;;;;7.15;100.00;101946.59;4929475;29;20020;-82
2022/01/13 08:03:28;;;;;;;32.10;5.05;;;;;;;7.19;100.00;101948.00;4929117;29;20071;-81
2022/01/13 08:05:53;;;;;;;44.38;6.47;;;;;;;7.21;100.00;101944.16;4930753;29;20040;-82
2022/01/13 08:08:18;;;;;;;43.45;6.93;;;;;;;7.21;100.00;101936.13;4928688;29;20036;-83
2022/01/13 08:10:44;;;;;;;49.30;5.88;;;;;;;7.24;100.00;101940.34;4913769;29;20036;-82
2022/01/13 08:13:09;;;;;;;36.53;5.07;;;;;;;7.23;100.00;101938.66;4914402;29;20046;-82
2022/01/13 08:15:36;;;;;;;46.00;7.65;;;;;;;7.24;100.00;101937.66;4909015;29;20474;-82
2022/01/13 08:20:46;;;;;;;43.38;5.97;;;;;;;7.20;100.00;101938.97;4915460;29;20130;-82
2022/01/13 08:23:12;;;;;;;42.65;7.88;;;;;;;7.16;100.00;101949.13;4913259;29;20068;-81
2022/01/13 08:25:38;;;;;;;35.22;5.30;;;;;;;7.22;100.00;101945.88;4912338;29;20028;-81
2022/01/13 08:28:05;;;;;;;43.42;6.57;;;;;;;7.03;100.00;101933.41;4931511;29;20127;-82
2022/01/13 08:30:31;;;;;;;35.90;4.68;;;;;;;7.22;100.00;101959.25;4934800;29;20024;-83
2022/01/13 08:32:57;;;;;;;34.08;4.63;;;;;;;7.22;100.00;101959.25;4937688;29;20032;-83
2022/01/13 08:35:22;;;;;;;41.53;6.28;;;;;;;7.12;100.00;101947.75;4938071;29;20043;-82
2022/01/13 08:37:48;;;;;;;27.63;4.80;;;;;;;7.14;100.00;101951.09;4935330;29;20036;-82
2022/01/13 08:40:14;;;;;;;43.42;5.53;;;;;;;7.24;100.00;101957.25;4900137;29;20048;-83
2022/01/13 08:42:41;;;;;;;41.65;5.55;;;;;;;7.18;100.00;101944.44;4931610;29;20055;-82
2022/01/13 08:45:09;;;;;;;42.65;6.22;;;;;;;7.23;100.00;101952.91;4929460;29;20118;-81
2022/01/13 08:47:34;;;;;;;31.55;5.10;;;;;;;7.28;100.00;101953.31;4898653;29;20050;-83
2022/01/13 08:50:10;;;;;;;42.67;6.43;;;;;;;7.24;100.00;101956.41;4931577;29;20443;-82
2022/01/13 08:52:38;;;;;;;41.10;5.78;;;;;;;7.28;100.00;101963.13;4931314;29;20048;-82
2022/01/13 08:55:05;;;;;;;37.78;5.60;;;;;;;7.32;100.00;101972.59;4913462;29;20081;-80
2022/01/13 08:57:31;;;;;;;44.65;5.90;;;;;;;7.33;100.00;101973.41;4928881;29;20060;-82
2022/01/13 08:59:56;;;;;;;36.00;4.93;;;;;;;7.31;100.00;101970.88;4927562;29;20418;-80
2022/01/13 09:02:24;;;;;;;42.10;5.75;;;;;;;7.28;100.00;101949.75;4897066;29;20096;-82
2022/01/13 09:04:50;;;;;;;48.80;6.18;;;;;;;7.26;100.00;101949.91;4912859;29;20036;-82
2022/01/13 09:07:15;;;;;;;41.72;5.55;;;;;;;7.19;100.00;101937.28;4912632;29;20028;-81
2022/01/13 09:09:41;;;;;;;34.78;5.32;;;;;;;7.29;100.00;101954.97;4928807;29;20063;-81
2022/01/13 09:12:07;;;;;;;35.17;4.53;;;;;;;7.26;100.00;101949.09;4928345;29;20036;-80
2022/01/13 09:14:33;;;;;;;39.92;6.60;;;;;;;7.27;100.00;101956.94;4911248;29;20064;-82
2022/01/13 09:16:58;;;;;;;38.58;5.65;;;;;;;7.15;100.00;101906.44;4915260;29;20044;-83
2022/01/13 09:19:24;;;;;;;37.80;5.10;;;;;;;7.30;100.00;101937.06;4927197;29;20075;-81
2022/01/13 09:21:50;;;;;;;48.75;6.95;;;;;;;7.33;100.00;101954.69;4930438;29;20051;-81
2022/01/13 09:24:18;;;;;;;52.10;7.13;;;;;;;7.36;100.00;101952.53;4928981;29;20116;-82
2022/01/13 09:26:45;;;;;;;42.92;6.20;;;;;;;7.26;100.00;101944.56;4899120;29;20035;-82
2022/01/13 09:29:12;;;;;;;46.10;6.80;;;;;;;7.31;100.00;101960.16;4929340;29;20067;-81
2022/01/13 09:31:39;;;;;;;36.65;6.05;;;;;;;7.29;100.00;101965.69;4918930;29;20043;-82
2022/01/13 09:34:06;;;;;;;58.20;7.00;;;;;;;7.20;100.00;101955.03;4937761;29;20462;-82
2022/01/13 09:36:32;;;;;;;42.90;6.47;;;;;;;7.22;100.00;101972.63;4923962;29;20028;-81
2022/01/13 09:39:02;;;;;;;58.47;8.25;;;;;;;7.26;100.00;101970.50;4935862;29;20035;-82
2022/01/13 09:41:31;;;;;;;48.95;7.95;;;;;;;7.27;100.00;101974.84;4932495;29;20028;-82
2022/01/13 09:43:58;;;;;;;51.22;7.07;;;;;;;7.25;100.00;101974.16;4935705;29;20138;-80
2022/01/13 09:46:26;;;;;;;35.88;6.30;;;;;;;7.24;100.00;101972.47;4917222;29;20044;-82
2022/01/13 09:48:53;;;;;;;41.55;6.13;;;;;;;7.29;100.00;101965.69;4922675;29;20036;-81
2022/01/13 09:51:18;;;;;;;43.05;7.40;;;;;;;7.35;100.00;101988.34;4918810;29;20115;-82
2022/01/13 09:53:44;;;;;;;43.33;6.07;;;;;;;7.38;100.00;101985.34;4931103;29;20036;-81
2022/01/13 09:56:10;;;;;;;49.38;7.75;;;;;;;7.38;100.00;101996.06;4912553;29;20038;-82
2022/01/13 09:58:36;;;;;;;36.67;6.47;;;;;;;7.42;100.00;101991.28;4925248;29;20363;-81
2022/01/13 10:01:02;;;;;;;38.65;5.03;;;;;;;7.44;100.00;101994.63;4921182;29;20032;-81
2022/01/13 10:03:28;;;;;;;41.47;6.22;;;;;;;7.45;100.00;101997.19;4928667;29;20110;-81
2022/01/13 10:06:00;;;;;;;41.58;6.15;;;;;;;7.43;100.00;101992.94;4931581;29;20039;-82
2022/01/13 10:08:47;;;;;;;55.28;8.27;;;;;;;7.40;100.00;101982.53;4936517;29;20055;-82
2022/01/13 10:11:33;;;;;;;37.72;4.72;;;;;;;7.42;100.00;101980.56;4936666;29;20028;-82
2022/01/13 10:17:05;;;;;;;34.17;5.03;;;;;;;7.51;100.00;101963.56;4923912;29;20052;-81
2022/01/13 10:19:42;;;;;;;42.65;7.00;;;;;;;7.49;100.00;101961.06;4934816;29;20036;-82
2022/01/13 10:22:08;;;;;;;37.60;6.03;;;;;;;7.50;100.00;101954.69;4914681;29;20463;-80
2022/01/13 10:24:36;;;;;;;42.53;7.68;;;;;;;7.51;100.00;101960.91;4934779;29;20024;-82
2022/01/13 10:27:06;;;;;;;34.65;4.35;;;;;;;7.53;100.00;101967.78;4938943;29;20028;-83
2022/01/13 10:29:35;;;;;;;34.10;5.07;;;;;;;7.55;100.00;101975.69;4941467;29;20004;-82
2022/01/13 10:32:01;;;;;;;43.88;7.15;;;;;;;7.47;100.00;101962.19;4941180;29;20032;-82
2022/01/13 10:34:26;;;;;;;46.85;7.20;;;;;;;7.48;100.00;101950.47;4937774;29;20036;-81
2022/01/13 10:37:12;;;;;;;32.28;5.63;;;;;;;7.56;100.00;101950.59;4931398;29;20036;-82
2022/01/13 10:39:43;;;;;;;33.58;5.75;;;;;;;7.50;100.00;101944.00;4929594;29;20035;-81
2022/01/13 10:42:44;;;;;;;32.38;6.03;;;;;;;7.53;100.00;101961.59;4931185;29;20028;-83
2022/01/13 10:44:58;;;;;;;46.40;5.78;;;;;;;7.44;100.00;101933.88;4914491;29;20032;-81
2022/01/13 10:47:23;;;;;;;35.78;4.72;;;;;;;7.46;100.00;101950.66;4933141;29;20514;-81
2022/01/13 10:49:50;;;;;;;45.40;7.80;;;;;;;7.49;100.00;101962.91;4917293;29;20072;-81
2022/01/13 10:52:24;;;;;;;36.70;5.22;;;;;;;7.45;100.00;101932.91;4918372;29;20036;-83
2022/01/13 10:54:53;;;;;;;35.42;6.47;;;;;;;7.47;100.00;101936.25;4923077;29;20028;-82
2022/01/13 10:57:21;;;;;;;43.08;7.00;;;;;;;7.50;100.00;101941.31;4939577;29;20030;-83
2022/01/13 10:59:46;;;;;;;48.40;7.38;;;;;;;7.42;100.00;101927.84;4936748;29;20004;-84
2022/01/13 11:02:12;;;;;;;41.00;5.97;;;;;;;7.50;100.00;101945.81;4938964;29;20032;-83
2022/01/13 11:04:38;;;;;;;40.25;6.43;;;;;;;7.47;100.00;101938.09;4921914;29;20032;-82
2022/01/13 11:07:17;;;;;;;41.00;5.47;;;;;;;7.43;100.00;101950.09;4933706;29;20063;-81
2022/01/13 11:09:56;;;;;;;27.27;4.45;;;;;;;7.45;100.00;101972.19;4932507;29;20020;-82
2022/01/13 11:12:32;;;;;;;38.05;5.90;;;;;;;7.42;100.00;101976.06;4930498;29;20110;-83
2022/01/13 11:15:05;;;;;;;32.20;5.57;;;;;;;7.33;100.00;101962.72;4929417;29;20028;-82
2022/01/13 11:17:33;;;;;;;50.60;7.50;;;;;;;7.30;100.00;101970.03;4932475;29;20024;-83
2022/01/13 11:19:59;;;;;;;46.17;7.90;;;;;;;7.20;100.00;101963.06;4916699;29;20059;-84
2022/01/13 11:22:26;;;;;;;52.47;6.82;;;;;;;7.23;100.00;101976.16;4928466;29;20036;-82
2022/01/13 11:24:51;;;;;;;40.25;6.15;;;;;;;7.12;100.00;101937.03;4930708;29;20057;-83
2022/01/13 11:27:19;;;;;;;48.65;8.00;;;;;;;7.16;100.00;101956.31;4935162;29;20487;-85
2022/01/13 11:29:46;;;;;;;38.53;6.90;;;;;;;7.16;100.00;101940.25;4904004;29;20024;-83
2022/01/13 11:32:14;;;;;;;33.30;6.22;;;;;;;7.15;100.00;101952.81;4921090;29;20060;-85
2022/01/13 11:34:41;;;;;;;44.00;6.40;;;;;;;7.23;100.00;101971.63;4919227;29;20032;-84
2022/01/13 11:37:06;;;;;;;48.95;6.25;;;;;;;7.22;100.00;101979.81;4934278;29;20020;-84
2022/01/13 11:39:42;;;;;;;46.88;6.05;;;;;;;7.22;100.00;101979.81;4934916;29;20032;-83
2022/01/13 11:42:10;;;;;;;44.65;7.30;;;;;;;7.22;100.00;101988.69;4934215;29;20024;-83
2022/01/13 11:44:37;;;;;;;52.67;7.25;;;;;;;7.22;100.00;101985.19;4935432;29;20032;-84
2022/01/13 11:47:15;;;;;;;49.78;6.53;;;;;;;7.22;100.00;101978.00;4909191;29;20042;-84
2022/01/13 11:49:55;;;;;;;57.80;8.02;;;;;;;7.20;100.00;101973.75;4913556;29;20080;-83
2022/01/13 11:52:43;;;;;;;56.95;6.93;;;;;;;7.25;100.00;101971.47;4915369;29;20076;-83